Orange Lake, FL (32681)

2:37 AM EST on February 27, 2015 (GMT -0500)
K2ADA Radio Ranch | Change Station
CLOSE
Current Station
Personal Weather Station
Location: Anthony, FL
Elevation: 102 ft
Nearby Weather Stations

Elev 102 ft 29.33 °N, 82.08 °W | Updated 3 minutes ago

Overcast
Overcast
49.1 °F
Feels Like 47 °F
N
6.0
Wind Variable Wind from NNE
Gusts 7.0 mph

Today
High -- | Low -- °F
--% Chance of Precip.
Yesterday
High -- | Low -- °F
Precip. -- in
6:56 AM 6:26 PM
Waxing Gibbous, 66% visible
Pressure 30.11 in
Visibility 10.0 miles
Clouds Mostly Cloudy 1800 ft
Overcast 2400 ft
Windchill 47 °F
Dew Point 44 °F
Humidity 84%
Rainfall 0.00 in
Snow Depth Not available.
UV 0 out of 12
Pollen 5.10 out of 12
Air Quality Not available.
Flu Activity Not available.
METAR KOCF 270715Z AUTO 03006KT 360V060 10SM BKN018 OVC024 10/06 A3011 RMK AO1

More Conditions Fewer Conditions

Pressure 30.11 in
Visibility 10.0 miles
Clouds Mostly Cloudy 1800 ft
Overcast 2400 ft
Windchill 47 °F
Dew Point 44 °F
Humidity 84%
Rainfall 0.00 in
Snow Depth Not available.
UV 0 out of 12
Pollen 5.10 out of 12
Air Quality Not available.
Flu Activity Not available.
METAR KOCF 270715Z AUTO 03006KT 360V060 10SM BKN018 OVC024 10/06 A3011 RMK AO1

More Conditions Fewer Conditions

10-Day Weather Forecast

Almanac

Astronomy

Feb. 27, 2015 Rise Set
Actual Time
Civil Twilight
Nautical Twilight
Astronomical Twilight
Moon
Length of Visible Light
Length of Day
Tomorrow will be .
, % of the Moon is Illuminated

Today's Extremes

State Highs State Lows

Community

WunderPhotos

Upload Photos

1,800,646 photos uploaded!

WunderBlogs® & News

Nearby

Air Quality

  Air Quality AQ Index Pollutant
Not available.

Snow Depth

Station Depth Elevation

Earthquake Activity

City Distance Mag. Time & Date
Minimum magnitude displayed is 2.5.

Coastal Water Temperatures

Place Temperature

Nearby Weather Stations